sensor_id;sensor_type;location;lat;lon;timestamp;P1;durP1;ratioP1;P2;durP2;ratioP2
75169;SDS011;63749;49.186;9.222;2022-12-17T00:00:08;54.88;;;21.58;;
75169;SDS011;63749;49.186;9.222;2022-12-17T00:02:56;50.20;;;20.27;;
75169;SDS011;63749;49.186;9.222;2022-12-17T00:05:40;54.22;;;20.27;;
75169;SDS011;63749;49.186;9.222;2022-12-17T00:08:24;55.25;;;19.75;;
75169;SDS011;63749;49.186;9.222;2022-12-17T00:11:08;57.42;;;19.83;;
75169;SDS011;63749;49.186;9.222;2022-12-17T00:13:52;48.03;;;20.05;;
75169;SDS011;63749;49.186;9.222;2022-12-17T00:16:45;53.67;;;20.21;;
75169;SDS011;63749;49.186;9.222;2022-12-17T00:19:30;53.15;;;21.52;;
75169;SDS011;63749;49.186;9.222;2022-12-17T00:22:13;52.97;;;19.50;;
75169;SDS011;63749;49.186;9.222;2022-12-17T00:24:57;51.88;;;19.60;;
75169;SDS011;63749;49.186;9.222;2022-12-17T00:27:41;48.90;;;19.98;;
75169;SDS011;63749;49.186;9.222;2022-12-17T00:30:25;50.15;;;20.25;;
75169;SDS011;63749;49.186;9.222;2022-12-17T00:33:10;50.67;;;19.38;;
75169;SDS011;63749;49.186;9.222;2022-12-17T00:35:55;55.80;;;19.97;;
75169;SDS011;63749;49.186;9.222;2022-12-17T00:38:39;52.78;;;19.27;;
75169;SDS011;63749;49.186;9.222;2022-12-17T00:41:23;48.80;;;19.02;;
75169;SDS011;63749;49.186;9.222;2022-12-17T00:44:07;50.63;;;18.95;;
75169;SDS011;63749;49.186;9.222;2022-12-17T00:46:51;51.65;;;18.85;;
75169;SDS011;63749;49.186;9.222;2022-12-17T00:49:35;47.57;;;19.53;;
75169;SDS011;63749;49.186;9.222;2022-12-17T00:52:19;56.13;;;19.95;;
75169;SDS011;63749;49.186;9.222;2022-12-17T00:55:03;49.45;;;19.27;;
75169;SDS011;63749;49.186;9.222;2022-12-17T00:57:54;52.35;;;18.45;;
75169;SDS011;63749;49.186;9.222;2022-12-17T01:00:41;45.78;;;18.27;;
75169;SDS011;63749;49.186;9.222;2022-12-17T01:03:26;43.87;;;17.37;;
75169;SDS011;63749;49.186;9.222;2022-12-17T01:06:11;48.58;;;18.52;;
75169;SDS011;63749;49.186;9.222;2022-12-17T01:08:56;43.83;;;17.83;;
75169;SDS011;63749;49.186;9.222;2022-12-17T01:11:40;47.38;;;17.92;;
75169;SDS011;63749;49.186;9.222;2022-12-17T01:14:24;45.28;;;17.70;;
75169;SDS011;63749;49.186;9.222;2022-12-17T01:17:09;46.37;;;17.20;;
75169;SDS011;63749;49.186;9.222;2022-12-17T01:19:53;44.17;;;17.88;;
75169;SDS011;63749;49.186;9.222;2022-12-17T01:22:37;46.90;;;18.98;;
75169;SDS011;63749;49.186;9.222;2022-12-17T01:25:21;43.05;;;17.00;;
75169;SDS011;63749;49.186;9.222;2022-12-17T01:28:04;52.85;;;18.38;;
75169;SDS011;63749;49.186;9.222;2022-12-17T01:30:48;48.90;;;18.50;;
75169;SDS011;63749;49.186;9.222;2022-12-17T01:33:33;50.17;;;18.15;;
75169;SDS011;63749;49.186;9.222;2022-12-17T01:36:33;44.45;;;17.35;;
75169;SDS011;63749;49.186;9.222;2022-12-17T01:39:17;44.05;;;17.52;;
75169;SDS011;63749;49.186;9.222;2022-12-17T01:42:01;44.08;;;16.67;;
75169;SDS011;63749;49.186;9.222;2022-12-17T01:47:38;44.15;;;17.95;;
75169;SDS011;63749;49.186;9.222;2022-12-17T01:50:25;43.83;;;18.23;;
75169;SDS011;63749;49.186;9.222;2022-12-17T01:53:14;48.10;;;18.00;;
75169;SDS011;63749;49.186;9.222;2022-12-17T01:56:01;46.85;;;18.30;;
75169;SDS011;63749;49.186;9.222;2022-12-17T01:58:46;48.63;;;18.13;;
75169;SDS011;63749;49.186;9.222;2022-12-17T02:01:30;48.63;;;18.10;;
75169;SDS011;63749;49.186;9.222;2022-12-17T02:04:14;49.78;;;18.50;;
75169;SDS011;63749;49.186;9.222;2022-12-17T02:13:22;44.70;;;16.87;;
75169;SDS011;63749;49.186;9.222;2022-12-17T02:16:14;47.15;;;17.00;;
75169;SDS011;63749;49.186;9.222;2022-12-17T02:19:06;45.28;;;16.10;;
75169;SDS011;63749;49.186;9.222;2022-12-17T02:22:17;41.58;;;15.90;;
75169;SDS011;63749;49.186;9.222;2022-12-17T02:25:24;43.42;;;16.13;;
75169;SDS011;63749;49.186;9.222;2022-12-17T02:28:20;46.70;;;15.30;;
75169;SDS011;63749;49.186;9.222;2022-12-17T02:31:04;45.75;;;16.30;;
75169;SDS011;63749;49.186;9.222;2022-12-17T02:33:49;43.92;;;16.33;;
75169;SDS011;63749;49.186;9.222;2022-12-17T02:36:33;41.90;;;16.30;;
75169;SDS011;63749;49.186;9.222;2022-12-17T02:39:18;40.03;;;15.80;;
75169;SDS011;63749;49.186;9.222;2022-12-17T02:42:02;43.17;;;16.47;;
75169;SDS011;63749;49.186;9.222;2022-12-17T02:44:47;45.20;;;15.77;;
75169;SDS011;63749;49.186;9.222;2022-12-17T02:47:31;42.92;;;15.95;;
75169;SDS011;63749;49.186;9.222;2022-12-17T02:50:15;42.53;;;15.55;;
75169;SDS011;63749;49.186;9.222;2022-12-17T02:52:59;41.35;;;15.77;;
75169;SDS011;63749;49.186;9.222;2022-12-17T02:55:45;40.73;;;15.40;;
75169;SDS011;63749;49.186;9.222;2022-12-17T02:58:29;45.58;;;16.55;;
75169;SDS011;63749;49.186;9.222;2022-12-17T03:01:14;42.88;;;15.43;;
75169;SDS011;63749;49.186;9.222;2022-12-17T03:03:58;45.10;;;16.95;;
75169;SDS011;63749;49.186;9.222;2022-12-17T03:06:42;44.45;;;15.52;;
75169;SDS011;63749;49.186;9.222;2022-12-17T03:09:26;47.00;;;15.63;;
75169;SDS011;63749;49.186;9.222;2022-12-17T03:12:10;41.95;;;15.95;;
75169;SDS011;63749;49.186;9.222;2022-12-17T03:14:54;46.83;;;16.13;;
75169;SDS011;63749;49.186;9.222;2022-12-17T03:17:38;48.83;;;15.57;;
75169;SDS011;63749;49.186;9.222;2022-12-17T03:20:22;44.67;;;16.58;;
75169;SDS011;63749;49.186;9.222;2022-12-17T03:23:07;41.33;;;16.33;;
75169;SDS011;63749;49.186;9.222;2022-12-17T03:25:53;43.25;;;15.35;;
75169;SDS011;63749;49.186;9.222;2022-12-17T03:28:40;38.88;;;15.07;;
75169;SDS011;63749;49.186;9.222;2022-12-17T03:31:24;41.95;;;15.43;;
75169;SDS011;63749;49.186;9.222;2022-12-17T03:34:07;39.42;;;15.07;;
75169;SDS011;63749;49.186;9.222;2022-12-17T03:36:51;39.67;;;15.30;;
75169;SDS011;63749;49.186;9.222;2022-12-17T03:39:35;46.45;;;15.85;;
75169;SDS011;63749;49.186;9.222;2022-12-17T03:42:19;44.92;;;15.20;;
75169;SDS011;63749;49.186;9.222;2022-12-17T03:45:03;42.00;;;15.27;;
75169;SDS011;63749;49.186;9.222;2022-12-17T03:47:47;38.33;;;14.48;;
75169;SDS011;63749;49.186;9.222;2022-12-17T03:50:31;37.50;;;14.60;;
75169;SDS011;63749;49.186;9.222;2022-12-17T03:53:15;37.90;;;13.98;;
75169;SDS011;63749;49.186;9.222;2022-12-17T03:55:59;41.35;;;14.77;;
75169;SDS011;63749;49.186;9.222;2022-12-17T03:58:43;40.55;;;15.15;;
75169;SDS011;63749;49.186;9.222;2022-12-17T04:01:27;38.05;;;14.57;;
75169;SDS011;63749;49.186;9.222;2022-12-17T04:04:11;35.87;;;14.07;;
75169;SDS011;63749;49.186;9.222;2022-12-17T04:06:55;32.80;;;14.07;;
75169;SDS011;63749;49.186;9.222;2022-12-17T04:09:39;37.40;;;14.07;;
75169;SDS011;63749;49.186;9.222;2022-12-17T04:12:23;38.40;;;14.20;;
75169;SDS011;63749;49.186;9.222;2022-12-17T04:15:07;36.78;;;13.85;;
75169;SDS011;63749;49.186;9.222;2022-12-17T04:17:51;37.67;;;13.40;;
75169;SDS011;63749;49.186;9.222;2022-12-17T04:20:35;39.88;;;14.23;;
75169;SDS011;63749;49.186;9.222;2022-12-17T04:23:19;41.92;;;15.30;;
75169;SDS011;63749;49.186;9.222;2022-12-17T04:26:03;37.35;;;13.32;;
75169;SDS011;63749;49.186;9.222;2022-12-17T04:28:47;45.38;;;14.45;;
75169;SDS011;63749;49.186;9.222;2022-12-17T04:31:30;39.40;;;14.43;;
75169;SDS011;63749;49.186;9.222;2022-12-17T04:34:14;36.47;;;14.50;;
75169;SDS011;63749;49.186;9.222;2022-12-17T04:36:58;34.95;;;13.52;;
75169;SDS011;63749;49.186;9.222;2022-12-17T04:39:42;32.17;;;12.95;;
75169;SDS011;63749;49.186;9.222;2022-12-17T04:42:26;37.72;;;14.77;;
75169;SDS011;63749;49.186;9.222;2022-12-17T04:45:10;31.87;;;13.10;;
75169;SDS011;63749;49.186;9.222;2022-12-17T04:48:01;37.08;;;14.30;;
75169;SDS011;63749;49.186;9.222;2022-12-17T04:50:45;39.67;;;14.25;;
75169;SDS011;63749;49.186;9.222;2022-12-17T04:53:29;38.53;;;13.68;;
75169;SDS011;63749;49.186;9.222;2022-12-17T04:56:13;36.20;;;13.23;;
75169;SDS011;63749;49.186;9.222;2022-12-17T04:58:57;36.17;;;13.00;;
75169;SDS011;63749;49.186;9.222;2022-12-17T05:01:41;36.83;;;13.63;;
75169;SDS011;63749;49.186;9.222;2022-12-17T05:04:25;36.35;;;13.15;;
75169;SDS011;63749;49.186;9.222;2022-12-17T05:07:09;40.92;;;14.38;;
75169;SDS011;63749;49.186;9.222;2022-12-17T05:09:53;38.78;;;14.38;;
75169;SDS011;63749;49.186;9.222;2022-12-17T05:12:37;36.53;;;13.53;;
75169;SDS011;63749;49.186;9.222;2022-12-17T05:15:20;35.92;;;13.57;;
75169;SDS011;63749;49.186;9.222;2022-12-17T05:18:05;37.08;;;14.30;;
75169;SDS011;63749;49.186;9.222;2022-12-17T05:20:49;36.47;;;13.20;;
75169;SDS011;63749;49.186;9.222;2022-12-17T05:23:33;40.92;;;14.35;;
75169;SDS011;63749;49.186;9.222;2022-12-17T05:29:03;39.88;;;13.60;;
75169;SDS011;63749;49.186;9.222;2022-12-17T05:31:47;36.92;;;14.93;;
75169;SDS011;63749;49.186;9.222;2022-12-17T05:34:32;33.08;;;12.88;;
75169;SDS011;63749;49.186;9.222;2022-12-17T05:37:16;36.90;;;13.95;;
75169;SDS011;63749;49.186;9.222;2022-12-17T05:40:00;37.70;;;14.03;;
75169;SDS011;63749;49.186;9.222;2022-12-17T05:42:54;33.70;;;12.55;;
75169;SDS011;63749;49.186;9.222;2022-12-17T05:45:42;37.38;;;13.82;;
75169;SDS011;63749;49.186;9.222;2022-12-17T05:48:27;35.75;;;14.10;;
75169;SDS011;63749;49.186;9.222;2022-12-17T05:51:11;39.33;;;14.32;;
75169;SDS011;63749;49.186;9.222;2022-12-17T05:53:55;36.77;;;13.63;;
75169;SDS011;63749;49.186;9.222;2022-12-17T05:56:39;44.22;;;14.38;;
75169;SDS011;63749;49.186;9.222;2022-12-17T05:59:23;34.05;;;13.25;;
75169;SDS011;63749;49.186;9.222;2022-12-17T06:02:07;40.42;;;14.93;;
75169;SDS011;63749;49.186;9.222;2022-12-17T06:04:51;39.38;;;14.70;;
75169;SDS011;63749;49.186;9.222;2022-12-17T06:07:35;40.37;;;14.73;;
75169;SDS011;63749;49.186;9.222;2022-12-17T06:10:18;43.35;;;15.48;;
75169;SDS011;63749;49.186;9.222;2022-12-17T06:13:02;45.30;;;15.85;;
75169;SDS011;63749;49.186;9.222;2022-12-17T06:15:49;46.40;;;16.48;;
75169;SDS011;63749;49.186;9.222;2022-12-17T06:18:34;49.28;;;16.50;;
75169;SDS011;63749;49.186;9.222;2022-12-17T06:21:18;45.87;;;16.53;;
75169;SDS011;63749;49.186;9.222;2022-12-17T06:24:02;47.10;;;16.80;;
75169;SDS011;63749;49.186;9.222;2022-12-17T06:26:47;54.63;;;18.33;;
75169;SDS011;63749;49.186;9.222;2022-12-17T06:29:31;48.22;;;16.73;;
75169;SDS011;63749;49.186;9.222;2022-12-17T06:32:15;58.97;;;19.13;;
75169;SDS011;63749;49.186;9.222;2022-12-17T06:34:58;53.47;;;18.47;;
75169;SDS011;63749;49.186;9.222;2022-12-17T06:37:42;58.75;;;19.52;;
75169;SDS011;63749;49.186;9.222;2022-12-17T06:40:26;55.92;;;19.65;;
75169;SDS011;63749;49.186;9.222;2022-12-17T06:43:12;51.85;;;19.33;;
75169;SDS011;63749;49.186;9.222;2022-12-17T06:45:55;57.35;;;19.92;;
75169;SDS011;63749;49.186;9.222;2022-12-17T06:48:39;46.30;;;17.07;;
75169;SDS011;63749;49.186;9.222;2022-12-17T06:51:23;53.67;;;19.60;;
75169;SDS011;63749;49.186;9.222;2022-12-17T06:54:07;54.33;;;18.90;;
75169;SDS011;63749;49.186;9.222;2022-12-17T06:56:51;48.53;;;17.52;;
75169;SDS011;63749;49.186;9.222;2022-12-17T06:59:35;55.08;;;19.08;;
75169;SDS011;63749;49.186;9.222;2022-12-17T07:02:19;59.73;;;18.47;;
75169;SDS011;63749;49.186;9.222;2022-12-17T07:05:06;50.80;;;18.52;;
75169;SDS011;63749;49.186;9.222;2022-12-17T07:07:59;62.40;;;18.88;;
75169;SDS011;63749;49.186;9.222;2022-12-17T07:10:44;55.42;;;19.55;;
75169;SDS011;63749;49.186;9.222;2022-12-17T07:13:27;55.22;;;20.20;;
75169;SDS011;63749;49.186;9.222;2022-12-17T07:16:12;55.50;;;19.60;;
75169;SDS011;63749;49.186;9.222;2022-12-17T07:18:57;61.35;;;19.15;;
75169;SDS011;63749;49.186;9.222;2022-12-17T07:21:41;55.75;;;19.67;;
75169;SDS011;63749;49.186;9.222;2022-12-17T07:24:25;55.90;;;20.27;;
75169;SDS011;63749;49.186;9.222;2022-12-17T07:27:08;65.70;;;22.00;;
75169;SDS011;63749;49.186;9.222;2022-12-17T07:29:52;56.03;;;18.23;;
75169;SDS011;63749;49.186;9.222;2022-12-17T07:32:36;60.10;;;19.58;;
75169;SDS011;63749;49.186;9.222;2022-12-17T07:35:21;54.40;;;17.40;;
75169;SDS011;63749;49.186;9.222;2022-12-17T07:38:04;60.50;;;20.55;;
75169;SDS011;63749;49.186;9.222;2022-12-17T07:40:48;61.92;;;20.73;;
75169;SDS011;63749;49.186;9.222;2022-12-17T07:43:32;52.87;;;18.57;;
75169;SDS011;63749;49.186;9.222;2022-12-17T07:46:16;52.72;;;17.77;;
75169;SDS011;63749;49.186;9.222;2022-12-17T07:49:00;54.20;;;19.38;;
75169;SDS011;63749;49.186;9.222;2022-12-17T07:51:44;60.80;;;19.90;;
75169;SDS011;63749;49.186;9.222;2022-12-17T07:54:28;60.55;;;20.17;;
75169;SDS011;63749;49.186;9.222;2022-12-17T07:57:14;66.80;;;22.17;;
75169;SDS011;63749;49.186;9.222;2022-12-17T08:00:02;59.97;;;21.00;;
75169;SDS011;63749;49.186;9.222;2022-12-17T08:02:48;56.72;;;19.60;;
75169;SDS011;63749;49.186;9.222;2022-12-17T08:05:59;61.83;;;20.63;;
75169;SDS011;63749;49.186;9.222;2022-12-17T08:08:43;59.85;;;17.27;;
75169;SDS011;63749;49.186;9.222;2022-12-17T08:11:27;60.80;;;21.13;;
75169;SDS011;63749;49.186;9.222;2022-12-17T08:14:12;61.45;;;20.25;;
75169;SDS011;63749;49.186;9.222;2022-12-17T08:16:59;61.15;;;21.05;;
75169;SDS011;63749;49.186;9.222;2022-12-17T08:19:45;94.80;;;19.85;;
75169;SDS011;63749;49.186;9.222;2022-12-17T08:22:29;63.83;;;17.80;;
75169;SDS011;63749;49.186;9.222;2022-12-17T08:25:13;69.07;;;16.87;;
75169;SDS011;63749;49.186;9.222;2022-12-17T08:27:58;66.80;;;17.67;;
75169;SDS011;63749;49.186;9.222;2022-12-17T08:30:48;84.95;;;19.38;;
75169;SDS011;63749;49.186;9.222;2022-12-17T08:33:32;63.80;;;17.05;;
75169;SDS011;63749;49.186;9.222;2022-12-17T08:36:17;66.55;;;19.60;;
75169;SDS011;63749;49.186;9.222;2022-12-17T08:39:01;73.43;;;19.23;;
75169;SDS011;63749;49.186;9.222;2022-12-17T08:41:45;71.82;;;22.25;;
75169;SDS011;63749;49.186;9.222;2022-12-17T08:44:29;68.22;;;21.73;;
75169;SDS011;63749;49.186;9.222;2022-12-17T08:47:13;59.83;;;21.60;;
75169;SDS011;63749;49.186;9.222;2022-12-17T08:49:56;72.88;;;21.83;;
75169;SDS011;63749;49.186;9.222;2022-12-17T08:52:40;64.83;;;21.30;;
75169;SDS011;63749;49.186;9.222;2022-12-17T08:55:24;65.70;;;21.33;;
75169;SDS011;63749;49.186;9.222;2022-12-17T08:58:08;60.65;;;20.10;;
75169;SDS011;63749;49.186;9.222;2022-12-17T09:00:52;58.25;;;20.02;;
75169;SDS011;63749;49.186;9.222;2022-12-17T09:03:36;63.83;;;20.52;;
75169;SDS011;63749;49.186;9.222;2022-12-17T09:06:21;65.37;;;21.57;;
75169;SDS011;63749;49.186;9.222;2022-12-17T09:09:06;63.67;;;22.35;;
75169;SDS011;63749;49.186;9.222;2022-12-17T09:11:50;66.47;;;22.50;;
75169;SDS011;63749;49.186;9.222;2022-12-17T09:14:33;63.03;;;21.30;;
75169;SDS011;63749;49.186;9.222;2022-12-17T09:17:34;56.50;;;20.42;;
75169;SDS011;63749;49.186;9.222;2022-12-17T09:20:18;57.40;;;20.17;;
75169;SDS011;63749;49.186;9.222;2022-12-17T09:23:01;56.13;;;21.02;;
75169;SDS011;63749;49.186;9.222;2022-12-17T09:25:55;52.58;;;20.48;;
75169;SDS011;63749;49.186;9.222;2022-12-17T09:28:39;56.60;;;19.02;;
75169;SDS011;63749;49.186;9.222;2022-12-17T09:31:23;57.88;;;20.45;;
75169;SDS011;63749;49.186;9.222;2022-12-17T09:34:08;53.70;;;20.33;;
75169;SDS011;63749;49.186;9.222;2022-12-17T09:36:51;61.35;;;21.65;;
75169;SDS011;63749;49.186;9.222;2022-12-17T09:39:35;61.33;;;22.75;;
75169;SDS011;63749;49.186;9.222;2022-12-17T09:42:30;52.80;;;20.63;;
75169;SDS011;63749;49.186;9.222;2022-12-17T09:45:37;58.72;;;20.80;;
75169;SDS011;63749;49.186;9.222;2022-12-17T09:48:40;54.03;;;19.47;;
75169;SDS011;63749;49.186;9.222;2022-12-17T09:51:34;62.33;;;21.52;;
75169;SDS011;63749;49.186;9.222;2022-12-17T09:54:31;57.78;;;20.73;;
75169;SDS011;63749;49.186;9.222;2022-12-17T09:57:22;53.60;;;20.45;;
75169;SDS011;63749;49.186;9.222;2022-12-17T10:03:13;56.83;;;21.97;;
75169;SDS011;63749;49.186;9.222;2022-12-17T10:06:02;52.55;;;21.10;;
75169;SDS011;63749;49.186;9.222;2022-12-17T10:08:57;48.70;;;19.40;;
75169;SDS011;63749;49.186;9.222;2022-12-17T10:11:42;34.35;;;13.13;;
75169;SDS011;63749;49.186;9.222;2022-12-17T10:14:26;43.47;;;17.33;;
75169;SDS011;63749;49.186;9.222;2022-12-17T10:17:15;54.63;;;20.73;;
75169;SDS011;63749;49.186;9.222;2022-12-17T10:19:59;53.83;;;20.80;;
75169;SDS011;63749;49.186;9.222;2022-12-17T10:22:45;50.95;;;20.50;;
75169;SDS011;63749;49.186;9.222;2022-12-17T10:25:31;51.80;;;20.55;;
75169;SDS011;63749;49.186;9.222;2022-12-17T10:28:16;55.58;;;21.00;;
75169;SDS011;63749;49.186;9.222;2022-12-17T10:31:21;53.10;;;18.87;;
75169;SDS011;63749;49.186;9.222;2022-12-17T10:34:12;52.78;;;20.85;;
75169;SDS011;63749;49.186;9.222;2022-12-17T10:37:01;41.05;;;16.27;;
75169;SDS011;63749;49.186;9.222;2022-12-17T10:39:58;49.67;;;19.33;;
75169;SDS011;63749;49.186;9.222;2022-12-17T10:42:59;54.40;;;20.45;;
75169;SDS011;63749;49.186;9.222;2022-12-17T10:45:42;53.60;;;19.13;;
75169;SDS011;63749;49.186;9.222;2022-12-17T10:48:36;53.25;;;19.52;;
75169;SDS011;63749;49.186;9.222;2022-12-17T10:51:26;52.08;;;20.95;;
75169;SDS011;63749;49.186;9.222;2022-12-17T10:54:29;49.33;;;18.33;;
75169;SDS011;63749;49.186;9.222;2022-12-17T10:57:24;52.65;;;19.60;;
75169;SDS011;63749;49.186;9.222;2022-12-17T11:00:19;52.27;;;20.30;;
75169;SDS011;63749;49.186;9.222;2022-12-17T11:03:05;51.67;;;19.25;;
75169;SDS011;63749;49.186;9.222;2022-12-17T11:05:50;56.65;;;21.65;;
75169;SDS011;63749;49.186;9.222;2022-12-17T11:08:37;54.65;;;21.75;;
75169;SDS011;63749;49.186;9.222;2022-12-17T11:11:25;51.05;;;20.48;;
75169;SDS011;63749;49.186;9.222;2022-12-17T11:14:09;55.07;;;21.10;;
75169;SDS011;63749;49.186;9.222;2022-12-17T11:16:57;39.38;;;15.98;;
75169;SDS011;63749;49.186;9.222;2022-12-17T11:22:38;49.92;;;19.88;;
75169;SDS011;63749;49.186;9.222;2022-12-17T11:28:32;54.80;;;20.43;;
75169;SDS011;63749;49.186;9.222;2022-12-17T11:37:56;55.92;;;20.90;;
75169;SDS011;63749;49.186;9.222;2022-12-17T11:40:52;56.15;;;20.65;;
75169;SDS011;63749;49.186;9.222;2022-12-17T11:46:45;57.15;;;20.52;;
75169;SDS011;63749;49.186;9.222;2022-12-17T11:49:51;43.17;;;15.82;;
75169;SDS011;63749;49.186;9.222;2022-12-17T11:53:07;52.70;;;19.77;;
75169;SDS011;63749;49.186;9.222;2022-12-17T12:02:19;49.38;;;18.17;;
75169;SDS011;63749;49.186;9.222;2022-12-17T12:08:36;54.72;;;20.55;;
75169;SDS011;63749;49.186;9.222;2022-12-17T12:14:31;52.83;;;20.37;;
75169;SDS011;63749;49.186;9.222;2022-12-17T12:20:41;55.08;;;20.65;;
75169;SDS011;63749;49.186;9.222;2022-12-17T12:27:05;58.80;;;21.52;;
75169;SDS011;63749;49.186;9.222;2022-12-17T12:30:07;59.43;;;21.33;;
75169;SDS011;63749;49.186;9.222;2022-12-17T12:36:10;55.50;;;19.65;;
75169;SDS011;63749;49.186;9.222;2022-12-17T12:38:58;57.60;;;20.85;;
75169;SDS011;63749;49.186;9.222;2022-12-17T12:44:49;55.23;;;19.67;;
75169;SDS011;63749;49.186;9.222;2022-12-17T12:48:00;59.33;;;21.10;;
75169;SDS011;63749;49.186;9.222;2022-12-17T12:51:02;56.75;;;20.98;;
75169;SDS011;63749;49.186;9.222;2022-12-17T12:53:56;56.38;;;20.15;;
75169;SDS011;63749;49.186;9.222;2022-12-17T12:56:41;61.03;;;20.45;;
75169;SDS011;63749;49.186;9.222;2022-12-17T12:59:26;55.53;;;21.37;;
75169;SDS011;63749;49.186;9.222;2022-12-17T13:02:16;62.92;;;21.48;;
75169;SDS011;63749;49.186;9.222;2022-12-17T13:05:27;59.72;;;21.85;;
75169;SDS011;63749;49.186;9.222;2022-12-17T13:10:32;59.78;;;21.45;;
75169;SDS011;63749;49.186;9.222;2022-12-17T13:12:59;59.27;;;22.70;;
75169;SDS011;63749;49.186;9.222;2022-12-17T13:15:39;61.42;;;22.55;;
75169;SDS011;63749;49.186;9.222;2022-12-17T13:21:00;58.67;;;21.58;;
75169;SDS011;63749;49.186;9.222;2022-12-17T13:23:38;60.20;;;21.65;;
75169;SDS011;63749;49.186;9.222;2022-12-17T13:28:35;61.08;;;23.05;;
75169;SDS011;63749;49.186;9.222;2022-12-17T13:31:05;55.80;;;21.43;;
75169;SDS011;63749;49.186;9.222;2022-12-17T13:39:12;58.35;;;23.23;;
75169;SDS011;63749;49.186;9.222;2022-12-17T13:41:43;57.97;;;23.55;;
75169;SDS011;63749;49.186;9.222;2022-12-17T13:44:22;54.30;;;23.13;;
75169;SDS011;63749;49.186;9.222;2022-12-17T13:46:50;59.50;;;25.00;;
75169;SDS011;63749;49.186;9.222;2022-12-17T13:51:44;56.65;;;25.02;;
75169;SDS011;63749;49.186;9.222;2022-12-17T13:54:16;63.95;;;26.35;;
75169;SDS011;63749;49.186;9.222;2022-12-17T13:56:43;60.03;;;25.42;;
75169;SDS011;63749;49.186;9.222;2022-12-17T13:59:22;61.03;;;25.73;;
75169;SDS011;63749;49.186;9.222;2022-12-17T14:01:49;58.88;;;24.55;;
75169;SDS011;63749;49.186;9.222;2022-12-17T14:04:18;57.95;;;25.13;;
75169;SDS011;63749;49.186;9.222;2022-12-17T14:06:48;60.00;;;25.63;;
75169;SDS011;63749;49.186;9.222;2022-12-17T14:09:18;59.28;;;26.08;;
75169;SDS011;63749;49.186;9.222;2022-12-17T14:11:45;56.30;;;25.57;;
75169;SDS011;63749;49.186;9.222;2022-12-17T14:14:33;61.20;;;24.98;;
75169;SDS011;63749;49.186;9.222;2022-12-17T14:17:04;58.90;;;25.02;;
75169;SDS011;63749;49.186;9.222;2022-12-17T14:19:30;61.53;;;25.80;;
75169;SDS011;63749;49.186;9.222;2022-12-17T14:21:56;60.28;;;25.90;;
75169;SDS011;63749;49.186;9.222;2022-12-17T14:24:23;60.53;;;24.37;;
75169;SDS011;63749;49.186;9.222;2022-12-17T14:26:54;57.42;;;24.52;;
75169;SDS011;63749;49.186;9.222;2022-12-17T14:29:24;61.45;;;24.80;;
75169;SDS011;63749;49.186;9.222;2022-12-17T14:31:55;66.55;;;25.52;;
75169;SDS011;63749;49.186;9.222;2022-12-17T14:34:22;64.70;;;26.23;;
75169;SDS011;63749;49.186;9.222;2022-12-17T14:36:52;65.05;;;26.05;;
75169;SDS011;63749;49.186;9.222;2022-12-17T14:39:29;62.47;;;25.75;;
75169;SDS011;63749;49.186;9.222;2022-12-17T14:41:57;65.97;;;25.43;;
75169;SDS011;63749;49.186;9.222;2022-12-17T14:44:59;62.50;;;25.38;;
75169;SDS011;63749;49.186;9.222;2022-12-17T14:47:27;66.75;;;26.75;;
75169;SDS011;63749;49.186;9.222;2022-12-17T14:50:22;66.72;;;26.92;;
75169;SDS011;63749;49.186;9.222;2022-12-17T14:52:43;69.45;;;26.33;;
75169;SDS011;63749;49.186;9.222;2022-12-17T14:55:33;78.47;;;28.00;;
75169;SDS011;63749;49.186;9.222;2022-12-17T15:00:46;70.95;;;27.98;;
75169;SDS011;63749;49.186;9.222;2022-12-17T15:03:22;64.50;;;24.17;;
75169;SDS011;63749;49.186;9.222;2022-12-17T15:05:59;62.95;;;23.42;;
75169;SDS011;63749;49.186;9.222;2022-12-17T15:08:31;65.13;;;24.37;;
75169;SDS011;63749;49.186;9.222;2022-12-17T15:11:16;65.72;;;24.77;;
75169;SDS011;63749;49.186;9.222;2022-12-17T15:13:44;67.93;;;25.35;;
75169;SDS011;63749;49.186;9.222;2022-12-17T15:16:10;74.33;;;25.40;;
75169;SDS011;63749;49.186;9.222;2022-12-17T15:18:35;63.22;;;24.60;;
75169;SDS011;63749;49.186;9.222;2022-12-17T15:21:00;73.63;;;27.10;;
75169;SDS011;63749;49.186;9.222;2022-12-17T15:23:26;74.70;;;26.27;;
75169;SDS011;63749;49.186;9.222;2022-12-17T15:25:52;77.30;;;25.37;;
75169;SDS011;63749;49.186;9.222;2022-12-17T15:28:18;69.35;;;24.02;;
75169;SDS011;63749;49.186;9.222;2022-12-17T15:30:45;88.47;;;27.35;;
75169;SDS011;63749;49.186;9.222;2022-12-17T15:33:11;73.40;;;26.25;;
75169;SDS011;63749;49.186;9.222;2022-12-17T15:35:37;79.20;;;28.30;;
75169;SDS011;63749;49.186;9.222;2022-12-17T15:38:03;88.53;;;28.97;;
75169;SDS011;63749;49.186;9.222;2022-12-17T15:40:29;82.97;;;27.80;;
75169;SDS011;63749;49.186;9.222;2022-12-17T15:42:55;82.00;;;28.17;;
75169;SDS011;63749;49.186;9.222;2022-12-17T15:45:36;86.60;;;27.25;;
75169;SDS011;63749;49.186;9.222;2022-12-17T15:48:06;80.85;;;25.92;;
75169;SDS011;63749;49.186;9.222;2022-12-17T15:50:33;81.70;;;27.08;;
75169;SDS011;63749;49.186;9.222;2022-12-17T15:52:58;72.43;;;25.57;;
75169;SDS011;63749;49.186;9.222;2022-12-17T15:55:23;71.03;;;23.37;;
75169;SDS011;63749;49.186;9.222;2022-12-17T15:57:49;71.80;;;24.40;;
75169;SDS011;63749;49.186;9.222;2022-12-17T16:00:14;74.93;;;24.67;;
75169;SDS011;63749;49.186;9.222;2022-12-17T16:02:40;76.65;;;26.42;;
75169;SDS011;63749;49.186;9.222;2022-12-17T16:05:05;93.60;;;27.60;;
75169;SDS011;63749;49.186;9.222;2022-12-17T16:07:31;85.97;;;27.10;;
75169;SDS011;63749;49.186;9.222;2022-12-17T16:09:56;80.50;;;25.77;;
75169;SDS011;63749;49.186;9.222;2022-12-17T16:12:22;80.63;;;26.30;;
75169;SDS011;63749;49.186;9.222;2022-12-17T16:14:47;79.70;;;25.97;;
75169;SDS011;63749;49.186;9.222;2022-12-17T16:17:13;85.13;;;26.03;;
75169;SDS011;63749;49.186;9.222;2022-12-17T16:19:38;82.78;;;26.33;;
75169;SDS011;63749;49.186;9.222;2022-12-17T16:22:03;78.57;;;25.20;;
75169;SDS011;63749;49.186;9.222;2022-12-17T16:24:29;82.07;;;26.40;;
75169;SDS011;63749;49.186;9.222;2022-12-17T16:26:54;84.73;;;25.53;;
75169;SDS011;63749;49.186;9.222;2022-12-17T16:29:20;73.17;;;25.60;;
75169;SDS011;63749;49.186;9.222;2022-12-17T16:31:45;83.70;;;26.00;;
75169;SDS011;63749;49.186;9.222;2022-12-17T16:34:11;154.47;;;40.57;;
75169;SDS011;63749;49.186;9.222;2022-12-17T16:36:37;89.55;;;27.63;;
75169;SDS011;63749;49.186;9.222;2022-12-17T16:39:03;83.87;;;26.63;;
75169;SDS011;63749;49.186;9.222;2022-12-17T16:41:30;96.93;;;29.65;;
75169;SDS011;63749;49.186;9.222;2022-12-17T16:43:55;103.63;;;33.17;;
75169;SDS011;63749;49.186;9.222;2022-12-17T16:46:28;116.00;;;34.33;;
75169;SDS011;63749;49.186;9.222;2022-12-17T16:48:54;130.10;;;38.08;;
75169;SDS011;63749;49.186;9.222;2022-12-17T16:51:21;132.43;;;41.23;;
75169;SDS011;63749;49.186;9.222;2022-12-17T16:53:49;141.38;;;42.75;;
75169;SDS011;63749;49.186;9.222;2022-12-17T16:56:24;135.33;;;40.73;;
75169;SDS011;63749;49.186;9.222;2022-12-17T16:58:51;143.80;;;41.90;;
75169;SDS011;63749;49.186;9.222;2022-12-17T17:01:22;146.15;;;42.53;;
75169;SDS011;63749;49.186;9.222;2022-12-17T17:03:51;156.15;;;43.45;;